createdAt,value
2018-03-20T00:01:06.410Z,5.70
2018-03-20T00:04:07.624Z,6.63
2018-03-20T00:07:08.855Z,7.30
2018-03-20T00:10:10.844Z,7.53
2018-03-20T00:13:12.827Z,7.20
2018-03-20T00:16:14.063Z,7.63
2018-03-20T00:19:15.291Z,7.33
2018-03-20T00:22:16.530Z,6.53
2018-03-20T00:25:17.754Z,7.10
2018-03-20T00:28:19.082Z,7.53
2018-03-20T00:31:20.333Z,7.30
2018-03-20T00:34:21.563Z,6.50
2018-03-20T00:37:23.554Z,6.03
2018-03-20T00:40:24.772Z,6.60
2018-03-20T00:43:26.009Z,7.00
2018-03-20T00:46:27.251Z,6.80
2018-03-20T00:49:28.501Z,6.40
2018-03-20T00:52:29.776Z,6.80
2018-03-20T00:55:31.010Z,6.90
2018-03-20T00:58:32.982Z,7.47
2018-03-20T01:01:34.250Z,6.50
2018-03-20T01:04:36.253Z,7.83
2018-03-20T01:07:37.520Z,6.70
2018-03-20T01:10:38.789Z,6.87
2018-03-20T01:13:40.061Z,7.73
2018-03-20T01:16:41.282Z,7.47
2018-03-20T01:19:42.572Z,7.70
2018-03-20T01:22:43.871Z,7.53
2018-03-20T01:25:45.085Z,7.60
2018-03-20T01:28:47.058Z,7.20
2018-03-20T01:31:49.008Z,7.00
2018-03-20T01:34:50.257Z,7.43
2018-03-20T01:37:51.507Z,7.30
2018-03-20T01:40:52.731Z,7.40
2018-03-20T01:43:54.691Z,8.20
2018-03-20T01:46:55.942Z,8.13
2018-03-20T01:49:57.204Z,7.77
2018-03-20T01:53:16.933Z,7.47
2018-03-20T01:56:18.937Z,8.07
2018-03-20T01:59:20.197Z,7.07
2018-03-20T02:02:21.469Z,7.07
2018-03-20T02:05:22.687Z,7.73
2018-03-20T02:08:23.923Z,8.50
2018-03-20T02:11:25.151Z,6.90
2018-03-20T02:14:26.414Z,8.63
2018-03-20T02:17:27.640Z,7.33
2018-03-20T02:20:28.869Z,6.77
2018-03-20T02:23:30.111Z,7.00
2018-03-20T02:26:31.359Z,7.50
2018-03-20T02:29:32.624Z,7.83
2018-03-20T02:32:33.847Z,8.30
2018-03-20T02:35:35.091Z,7.43
2018-03-20T02:42:06.328Z,7.70
2018-03-20T02:45:08.319Z,8.90
2018-03-20T02:48:10.323Z,7.77
2018-03-20T02:51:11.582Z,8.40
2018-03-20T02:54:12.808Z,6.80
2018-03-20T02:57:14.815Z,6.93
2018-03-20T03:00:16.074Z,6.03
2018-03-20T03:03:18.101Z,6.93
2018-03-20T03:06:19.377Z,7.77
2018-03-20T03:09:20.646Z,8.67
2018-03-20T03:12:21.944Z,6.73
2018-03-20T03:15:23.154Z,8.03
2018-03-20T03:18:24.386Z,7.70
2018-03-20T03:21:25.618Z,8.07
2018-03-20T03:24:27.606Z,7.50
2018-03-20T03:27:28.855Z,7.13
2018-03-20T03:30:30.859Z,5.70
2018-03-20T03:33:32.120Z,7.10
2018-03-20T03:36:33.489Z,7.73
2018-03-20T03:39:34.737Z,7.40
2018-03-20T03:42:36.743Z,7.33
2018-03-20T03:45:37.979Z,6.87
2018-03-20T03:48:39.974Z,7.17
2018-03-20T03:51:41.219Z,8.20
2018-03-20T03:54:43.250Z,8.03
2018-03-20T03:57:44.506Z,6.60
2018-03-20T04:00:45.727Z,9.40
2018-03-20T04:03:47.744Z,7.33
2018-03-20T04:06:49.004Z,7.43
2018-03-20T04:09:50.274Z,6.90
2018-03-20T04:12:51.521Z,7.07
2018-03-20T04:15:52.799Z,6.40
2018-03-20T04:18:54.039Z,6.67
2018-03-20T04:21:55.293Z,7.03
2018-03-20T04:24:57.265Z,7.23
2018-03-20T04:27:59.214Z,7.77
2018-03-20T04:31:00.474Z,6.93
2018-03-20T04:34:01.739Z,8.73
2018-03-20T04:37:03.006Z,7.30
2018-03-20T04:40:04.316Z,7.67
2018-03-20T04:43:05.563Z,7.83
2018-03-20T04:46:07.593Z,7.30
2018-03-20T04:49:08.865Z,7.20
2018-03-20T04:52:10.132Z,8.53
2018-03-20T04:55:11.365Z,7.80
2018-03-20T04:58:12.621Z,8.80
2018-03-20T05:01:13.872Z,8.60
2018-03-20T05:04:15.862Z,7.53
2018-03-20T05:07:17.102Z,8.10
2018-03-20T05:10:18.342Z,7.60
2018-03-20T05:13:19.606Z,8.57
2018-03-20T05:16:20.842Z,10.10
2018-03-20T05:23:08.476Z,9.70
2018-03-20T05:26:10.486Z,10.20
2018-03-20T05:29:11.753Z,12.43
2018-03-20T05:32:13.034Z,13.57
2018-03-20T05:35:14.353Z,12.57
2018-03-20T05:38:16.323Z,12.77
2018-03-20T05:41:17.559Z,12.20
2018-03-20T05:44:19.569Z,15.23
2018-03-20T05:47:27.031Z,14.73
2018-03-20T05:54:09.270Z,15.27
2018-03-20T05:57:10.530Z,14.90
2018-03-20T06:00:11.842Z,18.97
2018-03-20T06:03:13.078Z,15.70
2018-03-20T06:06:14.349Z,19.63
2018-03-20T06:09:15.582Z,19.73
2018-03-20T06:12:16.799Z,20.57
2018-03-20T06:15:18.042Z,17.13
2018-03-20T06:18:19.295Z,19.50
2018-03-20T06:21:20.543Z,19.70
2018-03-20T06:24:21.774Z,17.97
2018-03-20T06:27:23.751Z,20.17
2018-03-20T06:30:25.738Z,20.27
2018-03-20T06:33:27.743Z,21.10
2018-03-20T06:36:28.987Z,20.47
2018-03-20T06:39:30.986Z,20.10
2018-03-20T06:42:32.224Z,24.00
2018-03-20T06:45:34.230Z,20.70
2018-03-20T06:48:35.489Z,22.73
2018-03-20T06:51:36.718Z,23.70
2018-03-20T06:54:38.032Z,22.50
2018-03-20T06:57:39.283Z,19.27
2018-03-20T07:00:40.557Z,18.77
2018-03-20T07:03:41.816Z,23.57
2018-03-20T07:06:43.045Z,28.17
2018-03-20T07:09:45.000Z,24.20
2018-03-20T07:12:46.243Z,24.63
2018-03-20T07:15:47.494Z,26.57
2018-03-20T07:18:48.745Z,27.07
2018-03-20T07:21:50.092Z,27.70
2018-03-20T07:24:51.815Z,26.23
2018-03-20T07:27:53.262Z,27.20
2018-03-20T07:30:54.518Z,28.23
2018-03-20T07:33:55.798Z,26.23
2018-03-20T07:36:57.055Z,24.80
2018-03-20T07:39:58.367Z,22.33
2018-03-20T07:42:59.589Z,26.57
2018-03-20T07:46:00.890Z,28.00
2018-03-20T07:49:02.210Z,23.90
2018-03-20T07:52:03.471Z,34.23
2018-03-20T07:55:04.752Z,26.00
2018-03-20T07:58:06.010Z,21.50
2018-03-20T08:01:07.265Z,18.60
2018-03-20T08:04:08.494Z,18.70
2018-03-20T08:07:09.723Z,16.07
2018-03-20T08:10:10.988Z,16.10
2018-03-20T08:13:12.286Z,15.47
2018-03-20T08:16:13.570Z,12.87
2018-03-20T08:19:14.814Z,11.10
2018-03-20T08:22:16.099Z,10.33
2018-03-20T08:25:17.402Z,10.17
2018-03-20T08:28:19.411Z,10.80
2018-03-20T08:31:21.627Z,10.30
2018-03-20T08:34:22.884Z,8.20
2018-03-20T08:37:24.171Z,9.80
2018-03-20T08:40:25.410Z,10.13
2018-03-20T08:43:26.655Z,10.73
2018-03-20T08:46:28.657Z,8.83
2018-03-20T08:49:29.891Z,8.70
2018-03-20T08:52:31.896Z,7.90
2018-03-20T08:55:33.179Z,7.13
2018-03-20T08:58:34.449Z,6.80
2018-03-20T09:01:35.867Z,8.43
2018-03-20T09:04:37.124Z,7.20
2018-03-20T09:07:39.107Z,7.87
2018-03-20T09:10:41.227Z,5.57
2018-03-20T09:13:42.474Z,4.63
2018-03-20T09:16:43.703Z,5.93
2018-03-20T09:19:44.950Z,5.40
2018-03-20T09:22:46.176Z,6.10
2018-03-20T09:25:47.411Z,7.37
2018-03-20T09:28:48.656Z,8.10
2018-03-20T09:31:49.977Z,4.60
2018-03-20T09:34:51.234Z,4.57
2018-03-20T09:37:53.195Z,5.20
2018-03-20T09:40:54.439Z,4.60
2018-03-20T09:43:56.413Z,4.87
2018-03-20T09:46:58.410Z,5.70
2018-03-20T09:49:59.650Z,4.93
2018-03-20T09:53:00.898Z,5.90
2018-03-20T09:56:02.181Z,5.10
2018-03-20T09:59:04.163Z,4.67
2018-03-20T10:02:06.131Z,4.07
2018-03-20T10:05:07.458Z,4.67
2018-03-20T10:08:08.691Z,4.40
2018-03-20T10:11:09.939Z,4.73
2018-03-20T10:14:11.939Z,3.20
2018-03-20T10:17:13.190Z,3.17
2018-03-20T10:20:15.232Z,3.20
2018-03-20T10:23:17.153Z,2.47
2018-03-20T10:26:18.431Z,2.70
2018-03-20T10:29:19.679Z,2.30
2018-03-20T10:32:20.926Z,2.20
2018-03-20T10:35:22.902Z,2.70
2018-03-20T10:38:24.969Z,2.33
2018-03-20T10:41:26.226Z,2.40
2018-03-20T10:44:27.470Z,2.20
2018-03-20T10:47:28.729Z,2.27
2018-03-20T10:50:30.004Z,1.93
2018-03-20T10:53:31.235Z,2.00
2018-03-20T10:56:32.494Z,2.03
2018-03-20T10:59:33.749Z,1.20
2018-03-20T11:02:35.025Z,1.80
2018-03-20T11:05:36.280Z,1.80
2018-03-20T11:08:37.550Z,2.70
2018-03-20T11:11:39.594Z,1.90
2018-03-20T11:14:41.587Z,1.70
2018-03-20T11:17:43.571Z,1.60
2018-03-20T11:20:44.787Z,1.77
2018-03-20T11:23:46.047Z,1.50
2018-03-20T11:26:47.299Z,1.17
2018-03-20T11:29:48.579Z,2.27
2018-03-20T11:32:49.823Z,1.50
2018-03-20T11:35:51.109Z,1.70
2018-03-20T11:38:52.389Z,1.50
2018-03-20T11:41:53.636Z,1.70
2018-03-20T11:44:54.921Z,1.33
2018-03-20T11:47:56.926Z,3.10
2018-03-20T11:50:58.210Z,1.83
2018-03-20T11:53:59.485Z,1.77
2018-03-20T11:57:00.721Z,1.50
2018-03-20T12:00:02.025Z,1.80
2018-03-20T12:03:03.282Z,1.40
2018-03-20T12:06:04.557Z,1.43
2018-03-20T12:09:14.624Z,1.70
2018-03-20T12:12:15.913Z,1.50
2018-03-20T12:15:17.179Z,1.47
2018-03-20T12:18:19.195Z,1.20
2018-03-20T12:21:21.059Z,1.20
2018-03-20T12:24:22.346Z,1.23
2018-03-20T12:27:23.608Z,1.73
2018-03-20T12:30:24.844Z,1.17
2018-03-20T12:33:26.120Z,1.10
2018-03-20T12:36:27.359Z,1.30
2018-03-20T12:39:28.588Z,0.90
2018-03-20T12:42:29.851Z,1.70
2018-03-20T12:45:31.109Z,1.50
2018-03-20T12:48:32.347Z,1.20
2018-03-20T12:51:33.588Z,1.27
2018-03-20T12:54:35.638Z,0.93
2018-03-20T12:57:36.848Z,1.10
2018-03-20T13:00:38.099Z,1.23
2018-03-20T13:03:39.366Z,1.20
2018-03-20T13:06:40.637Z,1.20
2018-03-20T13:09:41.926Z,1.20
2018-03-20T13:12:43.175Z,0.90
2018-03-20T13:15:44.426Z,1.60
2018-03-20T13:18:45.670Z,1.20
2018-03-20T13:21:47.659Z,1.10
2018-03-20T13:24:49.620Z,1.10
2018-03-20T13:27:51.605Z,1.00
2018-03-20T13:30:53.568Z,0.80
2018-03-20T13:33:54.828Z,1.30
2018-03-20T13:36:56.101Z,1.30
2018-03-20T13:39:57.332Z,1.00
2018-03-20T13:42:58.631Z,1.20
2018-03-20T13:46:00.626Z,1.70
2018-03-20T13:49:01.899Z,1.10
2018-03-20T13:52:03.160Z,1.00
2018-03-20T13:55:04.440Z,1.00
2018-03-20T13:58:05.696Z,1.40
2018-03-20T14:01:06.977Z,1.23
2018-03-20T14:04:08.262Z,1.97
2018-03-20T14:07:09.502Z,1.77
2018-03-20T14:10:10.769Z,1.10
2018-03-20T14:13:12.067Z,1.53
2018-03-20T14:16:14.059Z,0.90
2018-03-20T14:19:15.312Z,1.10
2018-03-20T14:22:16.558Z,1.50
2018-03-20T14:25:17.792Z,1.60
2018-03-20T14:28:19.060Z,1.03
2018-03-20T14:31:20.316Z,1.30
2018-03-20T14:34:21.636Z,1.17
2018-03-20T14:37:22.883Z,1.17
2018-03-20T14:40:24.141Z,1.20
2018-03-20T14:43:25.392Z,1.50
2018-03-20T14:46:26.636Z,2.00
2018-03-20T14:49:27.864Z,1.33
2018-03-20T14:52:29.920Z,0.80
2018-03-20T14:55:31.206Z,1.23
2018-03-20T14:58:33.208Z,1.30
2018-03-20T15:01:34.444Z,0.97
2018-03-20T15:04:35.687Z,1.20
2018-03-20T15:07:36.922Z,0.90
2018-03-20T15:10:38.140Z,1.10
2018-03-20T15:13:40.166Z,0.90
2018-03-20T15:16:41.424Z,1.10
2018-03-20T15:19:42.706Z,1.17
2018-03-20T15:22:43.932Z,0.90
2018-03-20T15:25:45.143Z,1.40
2018-03-20T15:28:46.407Z,1.10
2018-03-20T15:31:47.676Z,1.20
2018-03-20T15:34:48.937Z,1.10
2018-03-20T15:37:50.183Z,1.00
2018-03-20T15:40:51.428Z,1.10
2018-03-20T15:43:52.706Z,1.23
2018-03-20T15:46:53.974Z,1.10
2018-03-20T15:49:55.198Z,1.07
2018-03-20T15:52:56.472Z,0.90
2018-03-20T15:55:57.749Z,1.57
2018-03-20T15:58:58.995Z,5.80
2018-03-20T16:02:00.345Z,1.40
2018-03-20T16:05:01.583Z,1.43
2018-03-20T16:08:03.683Z,1.33
2018-03-20T16:11:05.038Z,1.17
2018-03-20T16:14:07.039Z,1.37
2018-03-20T16:17:09.071Z,0.90
2018-03-20T16:20:10.339Z,0.80
2018-03-20T16:23:11.553Z,0.90
2018-03-20T16:26:12.857Z,1.53
2018-03-20T16:29:14.125Z,1.20
2018-03-20T16:32:15.405Z,1.40
2018-03-20T16:35:16.647Z,1.90
2018-03-20T16:38:17.868Z,1.33
2018-03-20T16:41:19.147Z,1.47
2018-03-20T16:44:20.414Z,1.50
2018-03-20T16:47:22.415Z,1.57
2018-03-20T16:50:23.654Z,1.13
2018-03-20T16:53:24.935Z,2.20
2018-03-20T16:56:26.201Z,1.73
2018-03-20T16:59:27.451Z,1.53
2018-03-20T17:02:28.695Z,1.60
2018-03-20T17:05:29.951Z,1.17
2018-03-20T17:08:31.199Z,1.43
2018-03-20T17:11:33.176Z,0.90
2018-03-20T17:14:35.193Z,1.20
2018-03-20T17:17:36.441Z,4.03
2018-03-20T17:20:37.775Z,1.20
2018-03-20T17:23:39.014Z,1.00
2018-03-20T17:26:40.269Z,1.80
2018-03-20T17:29:41.533Z,1.90
2018-03-20T17:32:42.787Z,2.80
2018-03-20T17:35:44.070Z,3.67
2018-03-20T17:38:45.341Z,4.33
2018-03-20T17:41:46.579Z,1.70
2018-03-20T17:44:47.914Z,1.40
2018-03-20T17:47:49.173Z,2.10
2018-03-20T17:50:50.776Z,1.43
2018-03-20T17:53:52.034Z,1.93
2018-03-20T17:56:53.281Z,2.70
2018-03-20T17:59:54.582Z,1.80
2018-03-20T18:02:55.877Z,1.90
2018-03-20T18:05:57.840Z,2.00
2018-03-20T18:08:59.074Z,1.73
2018-03-20T18:12:00.350Z,2.00
2018-03-20T18:15:01.571Z,1.90
2018-03-20T18:18:02.830Z,1.67
2018-03-20T18:21:04.083Z,2.63
2018-03-20T18:24:06.086Z,2.40
2018-03-20T18:27:07.334Z,1.50
2018-03-20T18:30:08.619Z,2.73
2018-03-20T18:33:09.783Z,2.30
2018-03-20T18:36:11.037Z,2.90
2018-03-20T18:39:12.278Z,2.10
2018-03-20T18:42:14.273Z,2.20
2018-03-20T18:45:15.566Z,2.00
2018-03-20T18:51:23.288Z,2.00
2018-03-20T18:54:24.579Z,1.70
2018-03-20T18:57:25.812Z,1.90
2018-03-20T19:00:27.052Z,1.83
2018-03-20T19:03:29.038Z,1.50
2018-03-20T19:06:30.991Z,2.03
2018-03-20T19:09:32.225Z,2.03
2018-03-20T19:12:33.708Z,1.73
2018-03-20T19:15:37.476Z,1.93
2018-03-20T19:18:39.315Z,2.80
2018-03-20T19:21:41.370Z,2.10
2018-03-20T19:24:42.664Z,3.30
2018-03-20T19:27:43.933Z,4.57
2018-03-20T19:30:45.514Z,1.90
2018-03-20T19:33:48.246Z,3.30
2018-03-20T19:36:49.636Z,3.50
2018-03-20T19:39:51.085Z,4.73
2018-03-20T19:42:52.430Z,4.83
2018-03-20T19:45:53.780Z,2.80
2018-03-20T19:48:55.418Z,3.20
2018-03-20T19:51:56.775Z,2.80
2018-03-20T19:54:58.120Z,3.80
2018-03-20T19:57:59.425Z,3.33
2018-03-20T20:01:00.789Z,2.70
2018-03-20T20:04:02.082Z,2.47
2018-03-20T20:07:04.449Z,2.77
2018-03-20T20:10:07.247Z,2.70
2018-03-20T20:13:09.252Z,2.00
2018-03-20T20:16:11.783Z,2.30
2018-03-20T20:19:13.168Z,3.33
2018-03-20T20:22:14.580Z,3.33
2018-03-20T20:25:17.113Z,2.70
2018-03-20T20:28:18.743Z,2.23
2018-03-20T20:31:20.267Z,2.13
2018-03-20T20:34:21.583Z,3.87
2018-03-20T20:37:23.356Z,3.43
2018-03-20T20:40:24.643Z,2.70
2018-03-20T20:43:26.303Z,4.03
2018-03-20T20:46:28.109Z,2.40
2018-03-20T20:49:29.388Z,2.90
2018-03-20T20:52:30.689Z,2.27
2018-03-20T20:55:32.796Z,2.80
2018-03-20T20:58:35.380Z,2.53
2018-03-20T21:01:37.149Z,2.37
2018-03-20T21:04:39.200Z,2.53
2018-03-20T21:07:40.720Z,2.80
2018-03-20T21:10:42.020Z,2.60
2018-03-20T21:13:43.279Z,2.53
2018-03-20T21:16:45.005Z,2.80
2018-03-20T21:19:46.323Z,2.10
2018-03-20T21:22:48.143Z,2.47
2018-03-20T21:25:49.438Z,2.50
2018-03-20T21:28:51.476Z,2.90
2018-03-20T21:31:52.768Z,2.83
2018-03-20T21:34:54.055Z,2.90
2018-03-20T21:37:55.289Z,2.93
2018-03-20T21:40:56.552Z,2.60
2018-03-20T21:43:58.077Z,2.60
2018-03-20T21:46:59.320Z,3.87
2018-03-20T21:50:01.704Z,2.90
2018-03-20T21:53:02.991Z,3.53
2018-03-20T21:56:04.252Z,2.67
2018-03-20T21:59:05.502Z,2.63
2018-03-20T22:02:06.810Z,4.70
2018-03-20T22:05:08.775Z,2.97
2018-03-20T22:08:10.024Z,3.10
2018-03-20T22:11:11.307Z,2.90
2018-03-20T22:14:12.640Z,2.97
2018-03-20T22:17:13.935Z,2.93
2018-03-20T22:20:15.202Z,2.53
2018-03-20T22:23:17.771Z,2.90
2018-03-20T22:26:19.769Z,3.03
2018-03-20T22:29:21.034Z,2.90
2018-03-20T22:32:22.316Z,1.97
2018-03-20T22:35:24.361Z,2.37
2018-03-20T22:38:25.654Z,2.40
2018-03-20T22:41:27.674Z,2.50
2018-03-20T22:44:28.956Z,3.13
2018-03-20T22:47:30.238Z,2.67
2018-03-20T22:50:31.639Z,2.67
2018-03-20T22:53:33.673Z,2.70
2018-03-20T22:56:35.249Z,2.43
2018-03-20T22:59:36.522Z,2.00
2018-03-20T23:02:37.805Z,2.60
2018-03-20T23:05:39.777Z,2.20
2018-03-20T23:08:41.017Z,2.30
2018-03-20T23:11:42.334Z,3.80
2018-03-20T23:14:43.654Z,2.87
2018-03-20T23:17:44.967Z,2.57
2018-03-20T23:20:46.218Z,2.40
2018-03-20T23:23:48.203Z,2.77
2018-03-20T23:26:50.253Z,2.30
2018-03-20T23:29:51.538Z,2.23
2018-03-20T23:32:53.539Z,2.60
2018-03-20T23:35:54.784Z,3.13
2018-03-20T23:38:56.744Z,2.83
2018-03-20T23:41:57.985Z,3.67
2018-03-20T23:44:59.270Z,2.83
2018-03-20T23:48:00.541Z,3.63
2018-03-20T23:51:02.571Z,2.63
2018-03-20T23:54:03.816Z,3.20
2018-03-20T23:57:05.061Z,3.47
